sensor_id;sensor_type;location;lat;lon;timestamp;temperature;humidity
82901;DHT22;72673;50.822;3.280;2024-02-16T00:00:27;13.90;85.50
82901;DHT22;72673;50.822;3.280;2024-02-16T00:02:52;14.00;85.40
82901;DHT22;72673;50.822;3.280;2024-02-16T00:05:18;14.00;85.00
82901;DHT22;72673;50.822;3.280;2024-02-16T00:07:44;13.90;85.70
82901;DHT22;72673;50.822;3.280;2024-02-16T00:10:10;13.90;85.60
82901;DHT22;72673;50.822;3.280;2024-02-16T00:12:38;14.00;84.70
82901;DHT22;72673;50.822;3.280;2024-02-16T00:15:05;14.00;84.80
82901;DHT22;72673;50.822;3.280;2024-02-16T00:17:32;14.10;84.30
82901;DHT22;72673;50.822;3.280;2024-02-16T00:19:59;14.00;84.60
82901;DHT22;72673;50.822;3.280;2024-02-16T00:22:25;13.90;84.90
82901;DHT22;72673;50.822;3.280;2024-02-16T00:24:51;13.90;85.10
82901;DHT22;72673;50.822;3.280;2024-02-16T00:27:17;14.00;84.70
82901;DHT22;72673;50.822;3.280;2024-02-16T00:29:43;14.00;84.30
82901;DHT22;72673;50.822;3.280;2024-02-16T00:32:09;14.10;84.00
82901;DHT22;72673;50.822;3.280;2024-02-16T00:34:37;14.00;84.40
82901;DHT22;72673;50.822;3.280;2024-02-16T00:37:05;14.00;84.70
82901;DHT22;72673;50.822;3.280;2024-02-16T00:39:38;14.10;83.90
82901;DHT22;72673;50.822;3.280;2024-02-16T00:42:06;14.20;83.30
82901;DHT22;72673;50.822;3.280;2024-02-16T00:44:32;14.00;84.20
82901;DHT22;72673;50.822;3.280;2024-02-16T00:46:58;14.00;84.00
82901;DHT22;72673;50.822;3.280;2024-02-16T00:49:23;14.00;84.50
82901;DHT22;72673;50.822;3.280;2024-02-16T00:51:49;14.10;83.90
82901;DHT22;72673;50.822;3.280;2024-02-16T00:54:16;14.00;84.30
82901;DHT22;72673;50.822;3.280;2024-02-16T00:56:42;13.90;84.50
82901;DHT22;72673;50.822;3.280;2024-02-16T00:59:08;14.10;83.60
82901;DHT22;72673;50.822;3.280;2024-02-16T01:01:35;14.10;83.30
82901;DHT22;72673;50.822;3.280;2024-02-16T01:04:02;14.10;83.30
82901;DHT22;72673;50.822;3.280;2024-02-16T01:06:28;14.00;84.00
82901;DHT22;72673;50.822;3.280;2024-02-16T01:08:53;14.00;83.60
82901;DHT22;72673;50.822;3.280;2024-02-16T01:11:19;14.00;83.80
82901;DHT22;72673;50.822;3.280;2024-02-16T01:13:47;13.90;84.10
82901;DHT22;72673;50.822;3.280;2024-02-16T01:16:13;13.90;83.80
82901;DHT22;72673;50.822;3.280;2024-02-16T01:18:39;14.00;83.60
82901;DHT22;72673;50.822;3.280;2024-02-16T01:21:05;13.90;84.00
82901;DHT22;72673;50.822;3.280;2024-02-16T01:23:31;13.80;84.70
82901;DHT22;72673;50.822;3.280;2024-02-16T01:25:56;13.80;85.00
82901;DHT22;72673;50.822;3.280;2024-02-16T01:28:22;13.80;85.00
82901;DHT22;72673;50.822;3.280;2024-02-16T01:30:49;13.80;84.90
82901;DHT22;72673;50.822;3.280;2024-02-16T01:33:14;13.80;85.00
82901;DHT22;72673;50.822;3.280;2024-02-16T01:35:40;13.70;85.50
82901;DHT22;72673;50.822;3.280;2024-02-16T01:38:06;13.70;85.50
82901;DHT22;72673;50.822;3.280;2024-02-16T01:40:31;13.60;85.70
82901;DHT22;72673;50.822;3.280;2024-02-16T01:42:57;13.60;85.60
82901;DHT22;72673;50.822;3.280;2024-02-16T01:45:23;13.60;85.40
82901;DHT22;72673;50.822;3.280;2024-02-16T01:47:51;13.70;85.40
82901;DHT22;72673;50.822;3.280;2024-02-16T01:50:18;13.40;86.90
82901;DHT22;72673;50.822;3.280;2024-02-16T01:52:46;13.50;86.50
82901;DHT22;72673;50.822;3.280;2024-02-16T01:55:12;13.50;86.60
82901;DHT22;72673;50.822;3.280;2024-02-16T01:57:39;13.60;86.20
82901;DHT22;72673;50.822;3.280;2024-02-16T02:00:06;13.50;86.40
82901;DHT22;72673;50.822;3.280;2024-02-16T02:02:36;13.50;86.90
82901;DHT22;72673;50.822;3.280;2024-02-16T02:05:02;13.40;87.20
82901;DHT22;72673;50.822;3.280;2024-02-16T02:07:29;13.30;88.30
82901;DHT22;72673;50.822;3.280;2024-02-16T02:09:55;13.40;87.90
82901;DHT22;72673;50.822;3.280;2024-02-16T02:12:22;13.30;88.70
82901;DHT22;72673;50.822;3.280;2024-02-16T02:14:49;13.40;88.20
82901;DHT22;72673;50.822;3.280;2024-02-16T02:17:15;13.40;87.80
82901;DHT22;72673;50.822;3.280;2024-02-16T02:19:40;13.60;87.10
82901;DHT22;72673;50.822;3.280;2024-02-16T02:22:18;13.40;88.10
82901;DHT22;72673;50.822;3.280;2024-02-16T02:24:45;13.50;87.60
82901;DHT22;72673;50.822;3.280;2024-02-16T02:27:11;13.40;88.70
82901;DHT22;72673;50.822;3.280;2024-02-16T02:29:37;13.30;89.20
82901;DHT22;72673;50.822;3.280;2024-02-16T02:32:03;13.40;89.00
82901;DHT22;72673;50.822;3.280;2024-02-16T02:34:29;13.30;89.20
82901;DHT22;72673;50.822;3.280;2024-02-16T02:36:55;13.30;89.10
82901;DHT22;72673;50.822;3.280;2024-02-16T02:39:20;13.40;88.80
82901;DHT22;72673;50.822;3.280;2024-02-16T02:41:46;13.30;88.90
82901;DHT22;72673;50.822;3.280;2024-02-16T02:44:12;13.40;89.00
82901;DHT22;72673;50.822;3.280;2024-02-16T02:46:38;13.40;88.90
82901;DHT22;72673;50.822;3.280;2024-02-16T02:49:04;13.30;89.70
82901;DHT22;72673;50.822;3.280;2024-02-16T02:51:30;13.30;89.90
82901;DHT22;72673;50.822;3.280;2024-02-16T02:53:55;13.30;90.10
82901;DHT22;72673;50.822;3.280;2024-02-16T02:56:21;13.30;90.00
82901;DHT22;72673;50.822;3.280;2024-02-16T02:58:47;13.30;89.90
82901;DHT22;72673;50.822;3.280;2024-02-16T03:01:13;13.40;90.00
82901;DHT22;72673;50.822;3.280;2024-02-16T03:03:40;13.30;90.00
82901;DHT22;72673;50.822;3.280;2024-02-16T03:06:06;13.30;90.50
82901;DHT22;72673;50.822;3.280;2024-02-16T03:08:33;13.40;90.30
82901;DHT22;72673;50.822;3.280;2024-02-16T03:10:59;13.40;90.30
82901;DHT22;72673;50.822;3.280;2024-02-16T03:13:29;13.30;90.50
82901;DHT22;72673;50.822;3.280;2024-02-16T03:15:55;13.30;90.40
82901;DHT22;72673;50.822;3.280;2024-02-16T03:18:21;13.40;90.40
82901;DHT22;72673;50.822;3.280;2024-02-16T03:20:47;13.60;89.70
82901;DHT22;72673;50.822;3.280;2024-02-16T03:23:14;13.70;89.40
82901;DHT22;72673;50.822;3.280;2024-02-16T03:25:40;13.60;90.00
82901;DHT22;72673;50.822;3.280;2024-02-16T03:28:09;13.60;90.10
82901;DHT22;72673;50.822;3.280;2024-02-16T03:30:35;13.80;88.90
82901;DHT22;72673;50.822;3.280;2024-02-16T03:33:01;13.60;89.90
82901;DHT22;72673;50.822;3.280;2024-02-16T03:35:26;13.60;90.00
82901;DHT22;72673;50.822;3.280;2024-02-16T03:37:53;13.70;89.40
82901;DHT22;72673;50.822;3.280;2024-02-16T03:40:18;13.60;90.00
82901;DHT22;72673;50.822;3.280;2024-02-16T03:42:44;13.80;89.50
82901;DHT22;72673;50.822;3.280;2024-02-16T03:45:10;13.70;89.90
82901;DHT22;72673;50.822;3.280;2024-02-16T03:47:36;13.70;89.60
82901;DHT22;72673;50.822;3.280;2024-02-16T03:50:02;13.70;89.80
82901;DHT22;72673;50.822;3.280;2024-02-16T03:52:28;13.70;89.50
82901;DHT22;72673;50.822;3.280;2024-02-16T03:54:54;13.70;89.60
82901;DHT22;72673;50.822;3.280;2024-02-16T03:57:19;13.70;89.70
82901;DHT22;72673;50.822;3.280;2024-02-16T03:59:45;13.80;89.60
82901;DHT22;72673;50.822;3.280;2024-02-16T04:02:14;13.60;90.20
82901;DHT22;72673;50.822;3.280;2024-02-16T04:04:39;13.60;90.50
82901;DHT22;72673;50.822;3.280;2024-02-16T04:07:05;13.60;90.40
82901;DHT22;72673;50.822;3.280;2024-02-16T04:09:34;13.70;90.10
82901;DHT22;72673;50.822;3.280;2024-02-16T04:12:01;13.60;90.50
82901;DHT22;72673;50.822;3.280;2024-02-16T04:14:27;13.80;90.10
82901;DHT22;72673;50.822;3.280;2024-02-16T04:16:52;13.50;90.90
82901;DHT22;72673;50.822;3.280;2024-02-16T04:19:18;13.60;90.90
82901;DHT22;72673;50.822;3.280;2024-02-16T04:21:44;13.60;90.70
82901;DHT22;72673;50.822;3.280;2024-02-16T04:24:09;13.50;91.30
82901;DHT22;72673;50.822;3.280;2024-02-16T04:26:35;13.60;91.20
82901;DHT22;72673;50.822;3.280;2024-02-16T04:29:01;13.80;90.60
82901;DHT22;72673;50.822;3.280;2024-02-16T04:31:27;13.70;90.70
82901;DHT22;72673;50.822;3.280;2024-02-16T04:33:53;13.70;90.70
82901;DHT22;72673;50.822;3.280;2024-02-16T04:36:18;13.80;90.60
82901;DHT22;72673;50.822;3.280;2024-02-16T04:38:44;13.80;90.60
82901;DHT22;72673;50.822;3.280;2024-02-16T04:41:10;13.80;90.50
82901;DHT22;72673;50.822;3.280;2024-02-16T04:43:35;13.70;91.00
82901;DHT22;72673;50.822;3.280;2024-02-16T04:46:02;13.80;90.60
82901;DHT22;72673;50.822;3.280;2024-02-16T04:48:28;13.60;91.40
82901;DHT22;72673;50.822;3.280;2024-02-16T04:50:54;13.60;91.30
82901;DHT22;72673;50.822;3.280;2024-02-16T04:53:20;13.90;90.60
82901;DHT22;72673;50.822;3.280;2024-02-16T04:55:45;13.80;91.10
82901;DHT22;72673;50.822;3.280;2024-02-16T04:58:11;13.60;91.60
82901;DHT22;72673;50.822;3.280;2024-02-16T05:00:37;13.80;91.20
82901;DHT22;72673;50.822;3.280;2024-02-16T05:03:03;13.70;91.30
82901;DHT22;72673;50.822;3.280;2024-02-16T05:05:28;13.60;92.40
82901;DHT22;72673;50.822;3.280;2024-02-16T05:07:54;13.70;91.80
82901;DHT22;72673;50.822;3.280;2024-02-16T05:10:19;13.50;92.50
82901;DHT22;72673;50.822;3.280;2024-02-16T05:12:45;13.60;92.20
82901;DHT22;72673;50.822;3.280;2024-02-16T05:15:11;13.80;91.80
82901;DHT22;72673;50.822;3.280;2024-02-16T05:17:41;13.90;91.30
82901;DHT22;72673;50.822;3.280;2024-02-16T05:20:10;13.90;91.50
82901;DHT22;72673;50.822;3.280;2024-02-16T05:22:43;13.90;91.60
82901;DHT22;72673;50.822;3.280;2024-02-16T05:25:14;13.90;91.30
82901;DHT22;72673;50.822;3.280;2024-02-16T05:27:40;13.90;91.40
82901;DHT22;72673;50.822;3.280;2024-02-16T05:30:06;13.90;91.60
82901;DHT22;72673;50.822;3.280;2024-02-16T05:32:35;14.00;91.10
82901;DHT22;72673;50.822;3.280;2024-02-16T05:35:05;14.00;91.30
82901;DHT22;72673;50.822;3.280;2024-02-16T05:37:47;13.90;91.70
82901;DHT22;72673;50.822;3.280;2024-02-16T05:40:19;13.90;91.90
82901;DHT22;72673;50.822;3.280;2024-02-16T05:42:52;13.80;92.00
82901;DHT22;72673;50.822;3.280;2024-02-16T05:45:19;14.00;91.60
82901;DHT22;72673;50.822;3.280;2024-02-16T05:47:46;13.90;91.70
82901;DHT22;72673;50.822;3.280;2024-02-16T05:50:13;14.00;91.60
82901;DHT22;72673;50.822;3.280;2024-02-16T05:52:39;14.10;91.20
82901;DHT22;72673;50.822;3.280;2024-02-16T05:55:09;14.00;91.60
82901;DHT22;72673;50.822;3.280;2024-02-16T05:57:35;14.10;91.60
82901;DHT22;72673;50.822;3.280;2024-02-16T06:00:03;14.00;91.70
82901;DHT22;72673;50.822;3.280;2024-02-16T06:02:30;14.00;92.40
82901;DHT22;72673;50.822;3.280;2024-02-16T06:04:56;14.00;92.50
82901;DHT22;72673;50.822;3.280;2024-02-16T06:07:23;14.20;91.90
82901;DHT22;72673;50.822;3.280;2024-02-16T06:09:48;14.00;92.20
82901;DHT22;72673;50.822;3.280;2024-02-16T06:12:14;13.90;93.00
82901;DHT22;72673;50.822;3.280;2024-02-16T06:14:41;14.10;92.60
82901;DHT22;72673;50.822;3.280;2024-02-16T06:17:07;14.10;92.40
82901;DHT22;72673;50.822;3.280;2024-02-16T06:19:33;14.20;92.40
82901;DHT22;72673;50.822;3.280;2024-02-16T06:21:59;14.20;92.50
82901;DHT22;72673;50.822;3.280;2024-02-16T06:24:25;14.20;93.00
82901;DHT22;72673;50.822;3.280;2024-02-16T06:26:51;14.30;92.10
82901;DHT22;72673;50.822;3.280;2024-02-16T06:29:17;14.10;92.90
82901;DHT22;72673;50.822;3.280;2024-02-16T06:31:48;14.00;94.30
82901;DHT22;72673;50.822;3.280;2024-02-16T06:34:14;14.10;94.60
82901;DHT22;72673;50.822;3.280;2024-02-16T06:36:41;14.10;94.50
82901;DHT22;72673;50.822;3.280;2024-02-16T06:39:07;14.20;93.90
82901;DHT22;72673;50.822;3.280;2024-02-16T06:41:33;14.20;93.90
82901;DHT22;72673;50.822;3.280;2024-02-16T06:43:58;14.20;94.40
82901;DHT22;72673;50.822;3.280;2024-02-16T06:46:24;14.20;94.20
82901;DHT22;72673;50.822;3.280;2024-02-16T06:48:53;14.00;95.40
82901;DHT22;72673;50.822;3.280;2024-02-16T06:51:24;14.10;95.60
82901;DHT22;72673;50.822;3.280;2024-02-16T06:53:52;14.10;96.00
82901;DHT22;72673;50.822;3.280;2024-02-16T06:56:17;14.20;95.60
82901;DHT22;72673;50.822;3.280;2024-02-16T06:58:47;14.20;95.60
82901;DHT22;72673;50.822;3.280;2024-02-16T07:01:13;14.20;95.60
82901;DHT22;72673;50.822;3.280;2024-02-16T07:03:39;14.20;95.70
82901;DHT22;72673;50.822;3.280;2024-02-16T07:06:05;14.10;95.80
82901;DHT22;72673;50.822;3.280;2024-02-16T07:08:35;14.10;96.00
82901;DHT22;72673;50.822;3.280;2024-02-16T07:11:01;13.90;96.30
82901;DHT22;72673;50.822;3.280;2024-02-16T07:13:33;14.00;96.50
82901;DHT22;72673;50.822;3.280;2024-02-16T07:15:59;14.10;95.90
82901;DHT22;72673;50.822;3.280;2024-02-16T07:18:25;14.20;95.90
82901;DHT22;72673;50.822;3.280;2024-02-16T07:20:50;14.10;96.30
82901;DHT22;72673;50.822;3.280;2024-02-16T07:23:16;14.20;96.00
82901;DHT22;72673;50.822;3.280;2024-02-16T07:25:43;14.10;96.20
82901;DHT22;72673;50.822;3.280;2024-02-16T07:28:09;14.10;96.30
82901;DHT22;72673;50.822;3.280;2024-02-16T07:30:35;14.10;96.60
82901;DHT22;72673;50.822;3.280;2024-02-16T07:33:05;14.20;96.40
82901;DHT22;72673;50.822;3.280;2024-02-16T07:35:30;14.20;96.30
82901;DHT22;72673;50.822;3.280;2024-02-16T07:37:56;14.20;96.40
82901;DHT22;72673;50.822;3.280;2024-02-16T07:40:22;14.10;96.90
82901;DHT22;72673;50.822;3.280;2024-02-16T07:42:48;14.10;96.70
82901;DHT22;72673;50.822;3.280;2024-02-16T07:45:14;14.00;97.40
82901;DHT22;72673;50.822;3.280;2024-02-16T07:47:42;14.10;97.70
82901;DHT22;72673;50.822;3.280;2024-02-16T07:50:09;14.10;97.70
82901;DHT22;72673;50.822;3.280;2024-02-16T07:52:34;14.30;97.00
82901;DHT22;72673;50.822;3.280;2024-02-16T07:55:00;14.40;96.70
82901;DHT22;72673;50.822;3.280;2024-02-16T07:57:26;14.30;96.90
82901;DHT22;72673;50.822;3.280;2024-02-16T07:59:52;14.20;97.10
82901;DHT22;72673;50.822;3.280;2024-02-16T08:02:18;14.20;97.50
82901;DHT22;72673;50.822;3.280;2024-02-16T08:04:48;14.30;97.20
82901;DHT22;72673;50.822;3.280;2024-02-16T08:07:15;14.40;96.90
82901;DHT22;72673;50.822;3.280;2024-02-16T08:09:48;14.30;96.90
82901;DHT22;72673;50.822;3.280;2024-02-16T08:12:14;14.30;97.00
82901;DHT22;72673;50.822;3.280;2024-02-16T08:14:40;14.30;97.20
82901;DHT22;72673;50.822;3.280;2024-02-16T08:17:06;14.40;96.80
82901;DHT22;72673;50.822;3.280;2024-02-16T08:19:33;14.30;97.20
82901;DHT22;72673;50.822;3.280;2024-02-16T08:22:06;14.40;97.00
82901;DHT22;72673;50.822;3.280;2024-02-16T08:24:35;14.30;97.20
82901;DHT22;72673;50.822;3.280;2024-02-16T08:27:01;14.20;97.50
82901;DHT22;72673;50.822;3.280;2024-02-16T08:29:27;14.20;97.80
82901;DHT22;72673;50.822;3.280;2024-02-16T08:31:54;14.30;97.40
82901;DHT22;72673;50.822;3.280;2024-02-16T08:34:20;14.20;97.40
82901;DHT22;72673;50.822;3.280;2024-02-16T08:36:49;14.20;97.50
82901;DHT22;72673;50.822;3.280;2024-02-16T08:39:16;14.20;98.00
82901;DHT22;72673;50.822;3.280;2024-02-16T08:41:42;14.00;98.90
82901;DHT22;72673;50.822;3.280;2024-02-16T08:44:13;13.90;99.80
82901;DHT22;72673;50.822;3.280;2024-02-16T08:46:39;13.80;99.90
82901;DHT22;72673;50.822;3.280;2024-02-16T08:49:08;13.70;99.90
82901;DHT22;72673;50.822;3.280;2024-02-16T08:51:35;13.60;99.90
82901;DHT22;72673;50.822;3.280;2024-02-16T08:54:01;13.50;99.90
82901;DHT22;72673;50.822;3.280;2024-02-16T08:56:29;13.40;99.90
82901;DHT22;72673;50.822;3.280;2024-02-16T08:58:55;13.30;99.90
82901;DHT22;72673;50.822;3.280;2024-02-16T09:01:34;13.30;99.90
82901;DHT22;72673;50.822;3.280;2024-02-16T09:04:00;13.30;99.90
82901;DHT22;72673;50.822;3.280;2024-02-16T09:06:26;13.30;99.90
82901;DHT22;72673;50.822;3.280;2024-02-16T09:08:52;13.20;99.90
82901;DHT22;72673;50.822;3.280;2024-02-16T09:11:18;13.20;99.90
82901;DHT22;72673;50.822;3.280;2024-02-16T09:13:44;13.20;99.90
82901;DHT22;72673;50.822;3.280;2024-02-16T09:16:10;13.10;99.90
82901;DHT22;72673;50.822;3.280;2024-02-16T09:18:36;13.20;99.90
82901;DHT22;72673;50.822;3.280;2024-02-16T09:21:05;13.10;99.90
82901;DHT22;72673;50.822;3.280;2024-02-16T09:23:34;13.00;99.90
82901;DHT22;72673;50.822;3.280;2024-02-16T09:26:00;13.10;99.90
82901;DHT22;72673;50.822;3.280;2024-02-16T09:28:27;13.10;99.90
82901;DHT22;72673;50.822;3.280;2024-02-16T09:30:54;13.20;99.90
82901;DHT22;72673;50.822;3.280;2024-02-16T09:33:21;13.10;99.90
82901;DHT22;72673;50.822;3.280;2024-02-16T09:35:48;13.00;99.90
82901;DHT22;72673;50.822;3.280;2024-02-16T09:38:13;13.00;99.90
82901;DHT22;72673;50.822;3.280;2024-02-16T09:40:39;13.00;99.90
82901;DHT22;72673;50.822;3.280;2024-02-16T09:43:05;12.80;99.90
82901;DHT22;72673;50.822;3.280;2024-02-16T09:45:32;12.70;99.90
82901;DHT22;72673;50.822;3.280;2024-02-16T09:47:58;12.70;99.90
82901;DHT22;72673;50.822;3.280;2024-02-16T09:50:24;12.70;99.90
82901;DHT22;72673;50.822;3.280;2024-02-16T09:52:52;12.70;99.90
82901;DHT22;72673;50.822;3.280;2024-02-16T09:55:19;12.80;99.90
82901;DHT22;72673;50.822;3.280;2024-02-16T09:57:45;12.80;99.90
82901;DHT22;72673;50.822;3.280;2024-02-16T10:00:11;12.80;99.90
82901;DHT22;72673;50.822;3.280;2024-02-16T10:02:44;12.70;99.90
82901;DHT22;72673;50.822;3.280;2024-02-16T10:05:30;12.60;99.90
82901;DHT22;72673;50.822;3.280;2024-02-16T10:07:56;12.60;99.90
82901;DHT22;72673;50.822;3.280;2024-02-16T10:10:27;12.60;99.90
82901;DHT22;72673;50.822;3.280;2024-02-16T10:13:04;12.60;99.90
82901;DHT22;72673;50.822;3.280;2024-02-16T10:15:31;12.60;99.90
82901;DHT22;72673;50.822;3.280;2024-02-16T10:18:01;12.60;99.90
82901;DHT22;72673;50.822;3.280;2024-02-16T10:20:27;12.50;99.90
82901;DHT22;72673;50.822;3.280;2024-02-16T10:23:06;12.50;99.90
82901;DHT22;72673;50.822;3.280;2024-02-16T10:25:36;12.60;99.90
82901;DHT22;72673;50.822;3.280;2024-02-16T10:28:05;12.60;99.90
82901;DHT22;72673;50.822;3.280;2024-02-16T10:30:34;12.60;99.90
82901;DHT22;72673;50.822;3.280;2024-02-16T10:33:00;12.50;99.90
82901;DHT22;72673;50.822;3.280;2024-02-16T10:35:25;12.50;99.90
82901;DHT22;72673;50.822;3.280;2024-02-16T10:37:53;12.50;99.90
82901;DHT22;72673;50.822;3.280;2024-02-16T10:40:22;12.50;99.90
82901;DHT22;72673;50.822;3.280;2024-02-16T10:42:51;12.50;99.90
82901;DHT22;72673;50.822;3.280;2024-02-16T10:45:17;12.50;99.90
82901;DHT22;72673;50.822;3.280;2024-02-16T10:47:46;12.50;99.90
82901;DHT22;72673;50.822;3.280;2024-02-16T10:50:12;12.50;99.90
82901;DHT22;72673;50.822;3.280;2024-02-16T10:52:41;12.60;99.90
82901;DHT22;72673;50.822;3.280;2024-02-16T10:55:08;12.70;99.90
82901;DHT22;72673;50.822;3.280;2024-02-16T10:57:39;12.60;99.90
82901;DHT22;72673;50.822;3.280;2024-02-16T11:00:09;12.60;99.90
82901;DHT22;72673;50.822;3.280;2024-02-16T11:02:57;12.60;99.90
82901;DHT22;72673;50.822;3.280;2024-02-16T11:05:40;12.70;99.90
82901;DHT22;72673;50.822;3.280;2024-02-16T11:08:23;12.70;99.90
82901;DHT22;72673;50.822;3.280;2024-02-16T11:13:25;12.80;99.90
82901;DHT22;72673;50.822;3.280;2024-02-16T11:16:03;12.90;99.90
82901;DHT22;72673;50.822;3.280;2024-02-16T11:18:29;12.90;99.90
82901;DHT22;72673;50.822;3.280;2024-02-16T11:20:55;12.90;99.90
82901;DHT22;72673;50.822;3.280;2024-02-16T11:23:28;13.00;99.90
82901;DHT22;72673;50.822;3.280;2024-02-16T11:26:01;13.00;99.90
82901;DHT22;72673;50.822;3.280;2024-02-16T11:28:31;13.10;99.90
82901;DHT22;72673;50.822;3.280;2024-02-16T11:30:57;13.20;99.90
82901;DHT22;72673;50.822;3.280;2024-02-16T11:33:22;13.20;99.90
82901;DHT22;72673;50.822;3.280;2024-02-16T11:36:04;13.20;99.90
82901;DHT22;72673;50.822;3.280;2024-02-16T11:38:31;13.10;99.90
82901;DHT22;72673;50.822;3.280;2024-02-16T11:41:05;13.00;99.90
82901;DHT22;72673;50.822;3.280;2024-02-16T11:43:31;13.00;99.90
82901;DHT22;72673;50.822;3.280;2024-02-16T11:46:11;13.00;99.90
82901;DHT22;72673;50.822;3.280;2024-02-16T11:48:37;13.20;99.90
82901;DHT22;72673;50.822;3.280;2024-02-16T11:51:03;13.40;99.90
82901;DHT22;72673;50.822;3.280;2024-02-16T11:53:30;13.60;99.90
82901;DHT22;72673;50.822;3.280;2024-02-16T11:55:56;13.80;99.90
82901;DHT22;72673;50.822;3.280;2024-02-16T11:58:22;14.10;99.90
82901;DHT22;72673;50.822;3.280;2024-02-16T12:00:48;14.10;99.90
82901;DHT22;72673;50.822;3.280;2024-02-16T12:03:21;14.30;99.90
82901;DHT22;72673;50.822;3.280;2024-02-16T12:05:54;14.20;99.90
82901;DHT22;72673;50.822;3.280;2024-02-16T12:08:21;14.20;99.90
82901;DHT22;72673;50.822;3.280;2024-02-16T12:10:50;14.20;99.90
82901;DHT22;72673;50.822;3.280;2024-02-16T12:13:16;14.40;99.90
82901;DHT22;72673;50.822;3.280;2024-02-16T12:15:50;14.40;99.90
82901;DHT22;72673;50.822;3.280;2024-02-16T12:18:21;14.40;99.90
82901;DHT22;72673;50.822;3.280;2024-02-16T12:21:06;14.20;99.90
82901;DHT22;72673;50.822;3.280;2024-02-16T12:23:33;14.10;99.90
82901;DHT22;72673;50.822;3.280;2024-02-16T12:25:59;14.30;99.90
82901;DHT22;72673;50.822;3.280;2024-02-16T12:28:27;14.50;99.90
82901;DHT22;72673;50.822;3.280;2024-02-16T12:30:54;14.70;99.90
82901;DHT22;72673;50.822;3.280;2024-02-16T12:33:20;14.60;99.90
82901;DHT22;72673;50.822;3.280;2024-02-16T12:35:46;14.50;99.90
82901;DHT22;72673;50.822;3.280;2024-02-16T12:38:11;14.50;99.90
82901;DHT22;72673;50.822;3.280;2024-02-16T12:40:37;14.50;99.90
82901;DHT22;72673;50.822;3.280;2024-02-16T12:43:03;14.50;99.90
82901;DHT22;72673;50.822;3.280;2024-02-16T12:45:29;14.40;99.90
82901;DHT22;72673;50.822;3.280;2024-02-16T12:47:54;14.40;99.90
82901;DHT22;72673;50.822;3.280;2024-02-16T12:50:20;14.40;99.90
82901;DHT22;72673;50.822;3.280;2024-02-16T12:52:45;14.40;99.90
82901;DHT22;72673;50.822;3.280;2024-02-16T12:55:11;14.40;99.90
82901;DHT22;72673;50.822;3.280;2024-02-16T12:57:37;14.50;99.90
82901;DHT22;72673;50.822;3.280;2024-02-16T13:00:04;14.50;99.90
82901;DHT22;72673;50.822;3.280;2024-02-16T13:02:30;14.50;99.90
82901;DHT22;72673;50.822;3.280;2024-02-16T13:04:55;14.70;99.90
82901;DHT22;72673;50.822;3.280;2024-02-16T13:07:21;14.80;99.90
82901;DHT22;72673;50.822;3.280;2024-02-16T13:09:47;14.90;99.90
82901;DHT22;72673;50.822;3.280;2024-02-16T13:12:12;14.80;99.90
82901;DHT22;72673;50.822;3.280;2024-02-16T13:14:38;14.60;99.90
82901;DHT22;72673;50.822;3.280;2024-02-16T13:17:04;14.40;99.90
82901;DHT22;72673;50.822;3.280;2024-02-16T13:19:29;14.50;99.90
82901;DHT22;72673;50.822;3.280;2024-02-16T13:21:55;14.60;99.90
82901;DHT22;72673;50.822;3.280;2024-02-16T13:24:21;14.70;99.90
82901;DHT22;72673;50.822;3.280;2024-02-16T13:26:46;14.80;99.90
82901;DHT22;72673;50.822;3.280;2024-02-16T13:29:12;15.20;99.00
82901;DHT22;72673;50.822;3.280;2024-02-16T13:31:37;15.70;97.70
82901;DHT22;72673;50.822;3.280;2024-02-16T13:34:05;15.90;96.90
82901;DHT22;72673;50.822;3.280;2024-02-16T13:36:31;15.80;97.40
82901;DHT22;72673;50.822;3.280;2024-02-16T13:38:56;15.60;97.70
82901;DHT22;72673;50.822;3.280;2024-02-16T13:41:22;15.60;97.50
82901;DHT22;72673;50.822;3.280;2024-02-16T13:43:48;15.50;97.70
82901;DHT22;72673;50.822;3.280;2024-02-16T13:46:14;15.70;97.30
82901;DHT22;72673;50.822;3.280;2024-02-16T13:48:40;15.60;97.10
82901;DHT22;72673;50.822;3.280;2024-02-16T13:51:07;15.60;96.90
82901;DHT22;72673;50.822;3.280;2024-02-16T13:53:32;15.60;97.20
82901;DHT22;72673;50.822;3.280;2024-02-16T13:55:58;15.40;97.10
82901;DHT22;72673;50.822;3.280;2024-02-16T13:58:26;15.30;97.50
82901;DHT22;72673;50.822;3.280;2024-02-16T14:00:52;15.10;98.00
82901;DHT22;72673;50.822;3.280;2024-02-16T14:03:18;15.30;98.30
82901;DHT22;72673;50.822;3.280;2024-02-16T14:05:45;15.60;97.50
82901;DHT22;72673;50.822;3.280;2024-02-16T14:08:11;15.80;96.20
82901;DHT22;72673;50.822;3.280;2024-02-16T14:10:38;16.00;96.20
82901;DHT22;72673;50.822;3.280;2024-02-16T14:13:03;15.90;95.30
82901;DHT22;72673;50.822;3.280;2024-02-16T14:15:29;15.60;95.30
82901;DHT22;72673;50.822;3.280;2024-02-16T14:17:55;15.60;95.40
82901;DHT22;72673;50.822;3.280;2024-02-16T14:20:21;15.70;95.00
82901;DHT22;72673;50.822;3.280;2024-02-16T14:22:47;15.90;94.70
82901;DHT22;72673;50.822;3.280;2024-02-16T14:25:13;16.10;94.30
82901;DHT22;72673;50.822;3.280;2024-02-16T14:27:39;16.30;93.40
82901;DHT22;72673;50.822;3.280;2024-02-16T14:30:07;16.30;93.70
82901;DHT22;72673;50.822;3.280;2024-02-16T14:32:33;16.70;93.10
82901;DHT22;72673;50.822;3.280;2024-02-16T14:34:59;16.50;92.00
82901;DHT22;72673;50.822;3.280;2024-02-16T14:37:25;16.10;92.60
82901;DHT22;72673;50.822;3.280;2024-02-16T14:39:51;16.00;93.20
82901;DHT22;72673;50.822;3.280;2024-02-16T14:42:22;16.40;92.90
82901;DHT22;72673;50.822;3.280;2024-02-16T14:44:47;16.60;92.00
82901;DHT22;72673;50.822;3.280;2024-02-16T14:47:13;16.60;91.70
82901;DHT22;72673;50.822;3.280;2024-02-16T14:49:38;17.90;89.80
82901;DHT22;72673;50.822;3.280;2024-02-16T14:52:04;19.60;82.80
82901;DHT22;72673;50.822;3.280;2024-02-16T14:54:30;19.90;72.30
82901;DHT22;72673;50.822;3.280;2024-02-16T14:56:56;19.80;72.40
82901;DHT22;72673;50.822;3.280;2024-02-16T14:59:21;19.40;72.50
82901;DHT22;72673;50.822;3.280;2024-02-16T15:01:47;18.60;76.60
82901;DHT22;72673;50.822;3.280;2024-02-16T15:04:12;17.60;80.90
82901;DHT22;72673;50.822;3.280;2024-02-16T15:06:38;17.20;83.20
82901;DHT22;72673;50.822;3.280;2024-02-16T15:09:03;17.00;84.10
82901;DHT22;72673;50.822;3.280;2024-02-16T15:11:30;17.00;85.10
82901;DHT22;72673;50.822;3.280;2024-02-16T15:13:55;16.90;85.50
82901;DHT22;72673;50.822;3.280;2024-02-16T15:16:21;17.00;85.00
82901;DHT22;72673;50.822;3.280;2024-02-16T15:18:47;17.10;83.50
82901;DHT22;72673;50.822;3.280;2024-02-16T15:21:12;17.20;83.70
82901;DHT22;72673;50.822;3.280;2024-02-16T15:23:38;17.10;84.80
82901;DHT22;72673;50.822;3.280;2024-02-16T15:26:03;17.00;83.50
82901;DHT22;72673;50.822;3.280;2024-02-16T15:28:31;16.80;84.60
82901;DHT22;72673;50.822;3.280;2024-02-16T15:30:57;16.70;85.70